Terminal Aerodrome Forecast
Issued by NWS

Home | Current Version | Previous Version | Text Only | Print | Product List | Glossary On
Versions: 1 2 3 4 5 6 7 8 9 10 11 12 13 14 15 16 17 18 19
000
FTUS44 KLZK 021200 AAA
TAFPBF
TAF AMD
KPBF 021203Z 0212/0312 03005KT 5SM -SHRA BR OVC008
     FM021700 08008KT P6SM VCSH OVC007
     FM030100 VRB05KT 4SM BR VCSH OVC007=

USA.gov is the U.S. government's official web portal to all federal, state and local government web resources and services.